Remote, Oregon
Current Conditions -  °F | °C
As of 6:53 PM on Saturday 25 Oct 2014 (Local Time) from KRBG Reporting Station
Moderate Rain Moderate Rain  
Wind Chill: 54°   Ceiling: 6000
Heat Index: 54°   Visibility: 6mi
Dew Point: 49°   Wind: 5mph
Humidity: 83%   Direction: 180°S
Pressure: 29.91"   Gusts: NA
Location:  43.01°N, 123.89°W
Report Text: KRBG 260153Z AUTO 18004KT 6SM RA OVC060 12/09 A2991 RMK AO2 SLP129 P0010 T01220094 $
Loading
Personal Weather Stations






























Interactive Weather Map
Tropical Storm Tracking
New forecast layout! Learn more

10-Day Weather Forecast

Advertisements
Track Severe Weather on mobile